createdAt,value
2023-02-18T00:01:59.702Z,9.20
2023-02-18T00:07:03.190Z,9.19
2023-02-18T00:12:06.484Z,9.20
2023-02-18T00:17:10.857Z,9.19
2023-02-18T00:22:13.820Z,9.22
2023-02-18T00:27:17.398Z,9.22
2023-02-18T00:32:21.812Z,9.29
2023-02-18T00:37:24.814Z,9.35
2023-02-18T00:42:29.247Z,9.39
2023-02-18T00:47:33.665Z,9.44
2023-02-18T00:52:37.333Z,9.51
2023-02-18T00:57:40.309Z,9.61
2023-02-18T01:02:44.703Z,9.63
2023-02-18T01:07:47.787Z,9.72
2023-02-18T01:12:50.894Z,9.75
2023-02-18T01:17:55.377Z,9.77
2023-02-18T01:22:58.373Z,9.82
2023-02-18T01:28:01.394Z,9.87
2023-02-18T01:33:06.259Z,9.86
2023-02-18T01:38:09.886Z,9.95
2023-02-18T01:43:14.001Z,9.98
2023-02-18T01:48:21.044Z,9.97
2023-02-18T01:53:29.213Z,10.03
2023-02-18T01:58:32.529Z,10.05
2023-02-18T02:03:36.854Z,10.07
2023-02-18T02:08:41.314Z,10.08
2023-02-18T02:14:12.083Z,10.04
2023-02-18T02:19:45.063Z,9.99
2023-02-18T02:25:20.753Z,9.97
2023-02-18T02:31:05.154Z,9.94
2023-02-18T02:36:15.117Z,9.94
2023-02-18T02:41:28.859Z,9.93
2023-02-18T02:46:39.800Z,9.95
2023-02-18T02:51:51.055Z,9.93
2023-02-18T02:57:07.331Z,9.94
2023-02-18T03:02:26.447Z,9.93
2023-02-18T03:07:47.080Z,9.94
2023-02-18T03:13:01.835Z,9.92
2023-02-18T03:18:13.356Z,9.97
2023-02-18T03:23:25.338Z,9.98
2023-02-18T03:28:32.491Z,9.96
2023-02-18T03:33:42.008Z,9.99
2023-02-18T03:38:55.219Z,9.99
2023-02-18T03:44:02.124Z,10.00
2023-02-18T03:49:05.558Z,9.99
2023-02-18T03:54:10.149Z,10.00
2023-02-18T03:59:14.412Z,10.00
2023-02-18T04:04:17.486Z,10.03
2023-02-18T04:09:21.908Z,10.02
2023-02-18T04:14:25.153Z,10.03
2023-02-18T04:19:28.262Z,10.04
2023-02-18T04:24:32.596Z,10.04
2023-02-18T04:29:35.671Z,9.94
2023-02-18T04:34:38.640Z,10.03
2023-02-18T04:39:43.445Z,9.99
2023-02-18T04:44:47.629Z,9.99
2023-02-18T04:49:50.755Z,9.96
2023-02-18T04:54:55.309Z,9.93
2023-02-18T04:59:58.354Z,9.87
2023-02-18T05:05:01.342Z,9.81
2023-02-18T05:10:07.109Z,9.81
2023-02-18T05:15:10.660Z,9.74
2023-02-18T05:20:14.175Z,9.69
2023-02-18T05:25:18.926Z,9.62
2023-02-18T05:30:22.384Z,9.61
2023-02-18T05:35:25.621Z,9.58
2023-02-18T05:40:29.975Z,9.57
2023-02-18T05:45:33.300Z,9.58
2023-02-18T05:50:36.792Z,9.56
2023-02-18T05:55:41.976Z,9.53
2023-02-18T06:00:44.959Z,9.51
2023-02-18T06:05:51.206Z,9.52
2023-02-18T06:10:56.085Z,9.53
2023-02-18T06:15:59.158Z,9.53
2023-02-18T06:21:02.326Z,9.51
2023-02-18T06:26:07.421Z,9.48
2023-02-18T06:31:10.665Z,9.52
2023-02-18T06:36:13.923Z,9.50
2023-02-18T06:41:18.271Z,9.48
2023-02-18T06:46:21.279Z,9.45
2023-02-18T06:51:24.405Z,9.42
2023-02-18T06:56:30.907Z,9.39
2023-02-18T07:01:34.128Z,9.36
2023-02-18T07:06:37.090Z,9.33
2023-02-18T07:11:41.475Z,9.32
2023-02-18T07:16:44.568Z,9.31
2023-02-18T07:21:47.719Z,9.28
2023-02-18T07:26:52.075Z,9.28
2023-02-18T07:31:55.335Z,9.30
2023-02-18T07:36:58.335Z,9.34
2023-02-18T07:42:03.510Z,9.45
2023-02-18T07:47:10.157Z,9.54
2023-02-18T07:52:13.363Z,9.56
2023-02-18T07:57:17.740Z,9.61
2023-02-18T08:02:23.584Z,9.68
2023-02-18T08:07:26.648Z,9.72
2023-02-18T08:12:30.987Z,9.73
2023-02-18T08:17:34.014Z,9.76
2023-02-18T08:22:37.055Z,9.82
2023-02-18T08:27:41.538Z,9.82
2023-02-18T08:32:44.615Z,9.78
2023-02-18T08:37:52.179Z,9.74
2023-02-18T08:42:58.165Z,9.72
2023-02-18T08:48:19.442Z,9.76
2023-02-18T08:53:23.877Z,9.72
2023-02-18T08:58:28.267Z,9.67
2023-02-18T09:03:31.359Z,9.87
2023-02-18T09:08:34.449Z,9.93
2023-02-18T09:13:38.853Z,9.92
2023-02-18T09:18:42.578Z,9.89
2023-02-18T09:23:45.792Z,9.90
2023-02-18T09:28:50.319Z,10.00
2023-02-18T09:33:55.798Z,10.08
2023-02-18T09:38:59.110Z,9.99
2023-02-18T09:44:06.051Z,10.06
2023-02-18T09:49:15.594Z,10.09
2023-02-18T09:54:21.357Z,10.04
2023-02-18T09:59:27.832Z,10.08
2023-02-18T10:04:37.897Z,10.07
2023-02-18T10:09:42.238Z,10.11
2023-02-18T10:14:50.508Z,10.09
2023-02-18T10:19:55.898Z,10.23
2023-02-18T10:25:01.486Z,10.36
2023-02-18T10:30:22.525Z,10.44
2023-02-18T10:35:32.519Z,10.44
2023-02-18T10:40:47.597Z,10.37
2023-02-18T10:45:58.051Z,10.30
2023-02-18T10:51:06.058Z,10.40
2023-02-18T10:56:10.157Z,10.39
2023-02-18T11:01:20.342Z,10.49
2023-02-18T11:06:43.131Z,10.48
2023-02-18T11:11:50.686Z,10.50
2023-02-18T11:17:10.733Z,10.55
2023-02-18T11:22:19.291Z,10.62
2023-02-18T11:27:27.330Z,10.92
2023-02-18T11:32:35.379Z,11.30
2023-02-18T11:37:39.159Z,11.54
2023-02-18T11:42:42.367Z,11.60
2023-02-18T11:48:00.869Z,11.70
2023-02-18T11:53:27.810Z,11.63
2023-02-18T11:58:40.097Z,11.60
2023-02-18T12:03:53.488Z,11.56
2023-02-18T12:09:01.990Z,11.55
2023-02-18T12:14:10.756Z,11.57
2023-02-18T12:19:37.597Z,11.63
2023-02-18T12:24:54.028Z,11.73
2023-02-18T12:30:36.853Z,11.72
2023-02-18T12:36:08.100Z,11.93
2023-02-18T12:41:24.762Z,11.97
2023-02-18T12:46:53.296Z,12.27
2023-02-18T12:52:11.841Z,12.38
2023-02-18T12:57:35.258Z,12.08
2023-02-18T13:02:55.876Z,11.59
2023-02-18T13:08:26.914Z,11.70
2023-02-18T13:13:34.579Z,11.78
2023-02-18T13:18:42.169Z,11.74
2023-02-18T13:23:53.404Z,11.67
2023-02-18T13:29:10.462Z,11.83
2023-02-18T13:34:23.987Z,11.90
2023-02-18T13:39:29.406Z,11.93
2023-02-18T13:45:20.066Z,12.05
2023-02-18T13:50:44.202Z,12.13
2023-02-18T13:55:57.070Z,12.10
2023-02-18T14:01:05.407Z,12.24
2023-02-18T14:06:16.526Z,12.40
2023-02-18T14:11:48.433Z,12.51
2023-02-18T14:17:30.978Z,12.62
2023-02-18T14:22:44.931Z,12.59
2023-02-18T14:27:53.186Z,12.66
2023-02-18T14:33:00.616Z,12.61
2023-02-18T14:38:26.320Z,12.50
2023-02-18T14:43:48.102Z,12.52
2023-02-18T14:49:04.704Z,12.29
2023-02-18T14:54:13.965Z,12.28
2023-02-18T14:59:19.857Z,12.21
2023-02-18T15:04:23.105Z,12.12
2023-02-18T15:09:26.166Z,12.16
2023-02-18T15:14:33.122Z,11.93
2023-02-18T15:19:41.204Z,12.04
2023-02-18T15:24:45.229Z,12.00
2023-02-18T15:29:53.611Z,11.97
2023-02-18T15:35:01.827Z,11.85
2023-02-18T15:40:05.299Z,11.79
2023-02-18T15:45:19.360Z,11.78
2023-02-18T15:50:25.382Z,11.75
2023-02-18T15:55:32.934Z,11.69
2023-02-18T16:00:41.802Z,11.59
2023-02-18T16:05:44.812Z,11.49
2023-02-18T16:10:51.732Z,11.39
2023-02-18T16:15:56.494Z,11.38
2023-02-18T16:21:02.791Z,11.29
2023-02-18T16:26:20.412Z,11.27
2023-02-18T16:31:24.883Z,11.19
2023-02-18T16:36:28.506Z,11.17
2023-02-18T16:41:31.559Z,11.13
2023-02-18T16:46:36.571Z,11.09
2023-02-18T16:51:41.681Z,10.97
2023-02-18T16:56:45.525Z,11.02
2023-02-18T17:01:49.923Z,10.96
2023-02-18T17:06:53.285Z,10.80
2023-02-18T17:11:57.218Z,10.80
2023-02-18T17:17:01.806Z,10.70
2023-02-18T17:22:04.756Z,10.52
2023-02-18T17:27:08.476Z,10.44
2023-02-18T17:32:15.058Z,10.30
2023-02-18T17:37:18.169Z,10.25
2023-02-18T17:42:21.739Z,10.21
2023-02-18T17:47:26.042Z,10.17
2023-02-18T17:52:31.883Z,10.13
2023-02-18T17:57:34.989Z,10.07
2023-02-18T18:02:39.448Z,10.05
2023-02-18T18:07:42.459Z,10.04
2023-02-18T18:12:46.051Z,10.03
2023-02-18T18:17:50.468Z,10.00
2023-02-18T18:22:54.684Z,9.98
2023-02-18T18:27:58.633Z,10.03
2023-02-18T18:33:04.080Z,10.13
2023-02-18T18:38:07.318Z,10.14
2023-02-18T18:43:17.236Z,10.11
2023-02-18T18:48:22.693Z,10.18
2023-02-18T18:53:28.216Z,10.18
2023-02-18T18:58:31.918Z,10.22
2023-02-18T19:03:38.371Z,10.22
2023-02-18T19:08:41.461Z,10.19
2023-02-18T19:13:45.934Z,10.20
2023-02-18T19:18:50.579Z,10.18
2023-02-18T19:23:53.744Z,10.24
2023-02-18T19:28:56.714Z,10.28
2023-02-18T19:34:01.095Z,10.27
2023-02-18T19:39:04.174Z,10.33
2023-02-18T19:44:07.242Z,10.30
2023-02-18T19:49:11.599Z,10.32
2023-02-18T19:54:14.583Z,10.28
2023-02-18T19:59:17.548Z,10.15
2023-02-18T20:04:21.908Z,10.06
2023-02-18T20:09:24.975Z,10.04
2023-02-18T20:14:29.416Z,10.05
2023-02-18T20:19:35.234Z,10.04
2023-02-18T20:24:40.227Z,10.04
2023-02-18T20:29:43.337Z,9.97
2023-02-18T20:34:47.894Z,9.99
2023-02-18T20:39:50.906Z,9.98
2023-02-18T20:44:53.941Z,9.94
2023-02-18T20:49:58.297Z,9.92
2023-02-18T20:55:01.328Z,9.86
2023-02-18T21:00:05.974Z,9.85
2023-02-18T21:05:10.464Z,9.84
2023-02-18T21:10:13.447Z,9.83
2023-02-18T21:15:16.660Z,9.79
2023-02-18T21:20:21.415Z,9.81
2023-02-18T21:25:24.387Z,9.82
2023-02-18T21:30:28.126Z,9.82
2023-02-18T21:35:35.819Z,9.75
2023-02-18T21:40:38.917Z,9.74
2023-02-18T21:45:42.019Z,9.72
2023-02-18T21:50:46.471Z,9.67
2023-02-18T21:56:02.946Z,9.68
2023-02-18T22:01:06.857Z,9.67
2023-02-18T22:06:11.694Z,9.69
2023-02-18T22:11:14.903Z,9.66
2023-02-18T22:16:17.950Z,9.64
2023-02-18T22:21:23.570Z,9.66
2023-02-18T22:26:26.612Z,9.62
2023-02-18T22:31:31.940Z,9.66
2023-02-18T22:36:36.410Z,9.67
2023-02-18T22:41:39.854Z,9.58
2023-02-18T22:46:42.989Z,9.59
2023-02-18T22:51:47.314Z,9.56
2023-02-18T22:56:50.589Z,9.59
2023-02-18T23:01:53.631Z,9.55
2023-02-18T23:06:58.019Z,9.69
2023-02-18T23:12:01.424Z,9.71
2023-02-18T23:17:14.227Z,9.72
2023-02-18T23:22:20.702Z,9.71
2023-02-18T23:27:24.517Z,9.64
2023-02-18T23:32:27.896Z,9.55
2023-02-18T23:37:49.560Z,9.51
2023-02-18T23:42:54.426Z,9.40
2023-02-18T23:47:57.548Z,9.41
2023-02-18T23:53:01.962Z,9.36
2023-02-18T23:58:05.140Z,9.34
